Portada
METAR-TAF:

METAR-TAF

Aeroports :

Wapakoneta, Ohio, Estats Units d'Amèrica

latitud: 40-29-37N, longitud: 084-17-53W, altitud: 278 m

Observació

L'informe es va fer fa 17 minuts, a les 00:15 UTC
Vent 8 kt del Oest
Temperatura 17°C
Humitat 63%
Pressió 1011 hPa
Visibilitat: 16.1 km
Núvols disperses a una alçada de 4900 ft
Cel cobert a una alçada de 6000 ft

METAR: KAXV 180015Z AUTO 26008KT 10SM SCT049 OVC060 17/10 A2984 RMK AO2

Hora: 20:32 (00:32 UTC)


TAF: manca

Observacions i pronòstics meteorològics de més de 4000 aeroports (METAR i TAF).

Les estacions disponibles són els punts grocs i vermells al mapa.

Posi el ratolí al punt desitjat per veure el nom de l'estació.

Feu clic per veure les observacions i els pronòstics meteorològics.

Per canviar el mapa: feu clic els botons verds amb una creu de color negre per apropar; al botó verd amb un guió per allunyar la imatge; o en les fletxes verdes per a mapes adjacents.


METAR-TAF: